South Lake Tahoe, CA

10:23 PM PDT on April 25, 2015 (GMT -0700)
North Upper Truckee | | Change Station
CLOSE
Current Station
Personal Weather Station
Location: South Lake Tahoe, CA
Elevation: 6549 ft
Nearby Weather Stations

Elev 6549 ft 38.86 °N, 120.04 °W | Updated 11 seconds ago

Mostly Cloudy
Mostly Cloudy
32.5 °F
Feels Like 32 °F
N
0.0
Wind Variable Wind from ESE
Gusts 0.0 mph

Today
High -- | Low -- °F
--% Chance of Precip.
Yesterday
High -- | Low -- °F
Precip. -- in
6:10 AM 7:46 PM
First Quarter, 52% visible
Pressure 29.98 in
Visibility 10.0 miles
Clouds Few 3200 ft
Few 4700 ft
Mostly Cloudy 5500 ft
Windchill 32 °F
Dew Point 32 °F
Humidity 96%
Rainfall 0.81 in
Snow Depth Not available.
UV 0 out of 12
Pollen 4.00 out of 12
Air Quality Not available.
Flu Activity Sporadic
METAR KTVL 260453Z AUTO 00000KT 10SM FEW032 FEW047 BKN055 02/M01 A3000 RMK AO2 SLP150 T00171011 $

More Conditions Fewer Conditions

Pressure 29.98 in
Visibility 10.0 miles
Clouds Few 3200 ft
Few 4700 ft
Mostly Cloudy 5500 ft
Windchill 32 °F
Dew Point 32 °F
Humidity 96%
Rainfall 0.81 in
Snow Depth Not available.
UV 0 out of 12
Pollen 4.00 out of 12
Air Quality Not available.
Flu Activity Sporadic
METAR KTVL 260453Z AUTO 00000KT 10SM FEW032 FEW047 BKN055 02/M01 A3000 RMK AO2 SLP150 T00171011 $

More Conditions Fewer Conditions

The full scope of the disaster following a powerful 7.8-magnitude earthquake in Nepal may not come into view for days, but global charities are already sending emergency aid. Click to see how you can help.

10-Day Weather Forecast

Almanac

Astronomy

Apr. 25, 2015 Rise Set
Actual Time
Civil Twilight
Nautical Twilight
Astronomical Twilight
Moon
Length of Visible Light
Length of Day
Tomorrow will be .
, % of the Moon is Illuminated

Today's Extremes

State Highs State Lows

Community

WunderPhotos

Upload Photos

1,816,945 photos uploaded!

WunderBlogs® & News

Nearby

Air Quality

  Air Quality AQ Index Pollutant
Not available.

Snow Depth

Station Depth Elevation

Earthquake Activity

City Distance Mag. Time & Date
Minimum magnitude displayed is 2.5.

Coastal Water Temperatures

Place Temperature

Stations

Nearby Weather Stations

Station Location Temp. Windchill Dew Point Humidity Wind Precip. Elev Updated Type